createdAt,value
2019-05-20T00:00:00.951Z,73.99
2019-05-20T00:02:31.841Z,74.11
2019-05-20T00:05:00.951Z,72.64
2019-05-20T00:07:29.733Z,72.58
2019-05-20T00:09:58.531Z,72.75
2019-05-20T00:12:27.521Z,74.21
2019-05-20T00:14:56.382Z,74.30
2019-05-20T00:17:25.287Z,73.62
2019-05-20T00:19:55.904Z,73.96
2019-05-20T00:22:24.812Z,73.70
2019-05-20T00:24:53.902Z,73.54
2019-05-20T00:27:22.659Z,73.14
2019-05-20T00:29:51.531Z,73.41
2019-05-20T00:32:20.343Z,73.41
2019-05-20T00:34:49.498Z,72.99
2019-05-20T00:37:18.220Z,73.29
2019-05-20T00:39:47.020Z,73.70
2019-05-20T00:42:15.812Z,73.93
2019-05-20T00:44:44.552Z,74.19
2019-05-20T00:47:13.338Z,74.59
2019-05-20T00:49:42.160Z,74.86
2019-05-20T00:52:11.076Z,74.56
2019-05-20T00:54:40.914Z,74.18
2019-05-20T00:57:09.755Z,74.80
2019-05-20T00:59:38.638Z,75.22
2019-05-20T01:02:07.844Z,75.62
2019-05-20T01:04:36.700Z,74.98
2019-05-20T01:07:05.630Z,75.30
2019-05-20T01:09:34.885Z,75.56
2019-05-20T01:12:03.831Z,76.05
2019-05-20T01:14:32.853Z,76.32
2019-05-20T01:17:02.081Z,75.76
2019-05-20T01:19:31.135Z,76.23
2019-05-20T01:22:00.324Z,76.18
2019-05-20T01:24:29.188Z,75.96
2019-05-20T01:26:58.097Z,76.18
2019-05-20T01:29:26.959Z,76.35
2019-05-20T01:31:55.783Z,75.96
2019-05-20T01:34:24.555Z,76.49
2019-05-20T01:36:53.441Z,77.04
2019-05-20T01:39:22.276Z,76.87
2019-05-20T01:41:51.093Z,77.32
2019-05-20T01:44:22.912Z,77.19
2019-05-20T01:46:52.005Z,76.86
2019-05-20T01:49:20.904Z,77.47
2019-05-20T01:51:50.022Z,77.60
2019-05-20T01:54:18.867Z,77.53
2019-05-20T01:56:47.677Z,77.78
2019-05-20T01:59:16.472Z,78.06
2019-05-20T02:01:45.323Z,78.14
2019-05-20T02:04:14.167Z,78.20
2019-05-20T02:06:43.043Z,78.23
2019-05-20T02:09:11.918Z,78.67
2019-05-20T02:11:40.767Z,78.47
2019-05-20T02:14:13.539Z,79.13
2019-05-20T02:16:42.650Z,79.33
2019-05-20T02:19:11.480Z,78.85
2019-05-20T02:21:40.533Z,79.41
2019-05-20T02:24:09.347Z,79.68
2019-05-20T02:26:38.361Z,79.44
2019-05-20T02:29:07.137Z,80.07
2019-05-20T02:31:35.934Z,80.45
2019-05-20T02:34:04.824Z,80.17
2019-05-20T02:36:33.669Z,80.10
2019-05-20T02:39:02.384Z,80.39
2019-05-20T02:41:31.139Z,80.04
2019-05-20T02:43:59.863Z,80.03
2019-05-20T02:46:28.953Z,79.82
2019-05-20T02:48:57.786Z,79.13
2019-05-20T02:51:35.892Z,78.91
2019-05-20T02:54:04.651Z,78.98
2019-05-20T02:56:33.505Z,79.33
2019-05-20T02:59:02.300Z,79.50
2019-05-20T03:01:31.088Z,79.91
2019-05-20T03:04:10.587Z,80.15
2019-05-20T03:06:31.403Z,81.25
2019-05-20T03:09:00.219Z,80.86
2019-05-20T03:11:29.193Z,80.91
2019-05-20T03:13:58.051Z,81.17
2019-05-20T03:16:26.848Z,81.05
2019-05-20T03:18:55.693Z,81.68
2019-05-20T03:21:24.478Z,81.51
2019-05-20T03:23:53.624Z,81.50
2019-05-20T03:26:22.339Z,81.66
2019-05-20T03:28:51.499Z,82.66
2019-05-20T03:31:21.412Z,82.62
2019-05-20T03:33:50.166Z,82.09
2019-05-20T03:36:20.237Z,82.20
2019-05-20T03:38:49.688Z,82.74
2019-05-20T03:41:18.564Z,82.65
2019-05-20T03:43:47.394Z,82.61
2019-05-20T03:46:16.212Z,82.81
2019-05-20T03:48:46.092Z,82.95
2019-05-20T03:51:17.007Z,82.44
2019-05-20T03:53:45.928Z,81.97
2019-05-20T03:56:15.019Z,82.46
2019-05-20T03:58:43.823Z,82.67
2019-05-20T04:01:12.640Z,82.67
2019-05-20T04:03:42.919Z,82.70
2019-05-20T04:06:12.824Z,83.06
2019-05-20T04:08:41.614Z,83.11
2019-05-20T04:11:16.640Z,82.99
2019-05-20T04:13:45.417Z,82.92
2019-05-20T04:16:15.335Z,83.10
2019-05-20T04:18:44.145Z,83.19
2019-05-20T04:21:15.019Z,82.82
2019-05-20T04:23:43.842Z,82.85
2019-05-20T04:26:13.732Z,83.24
2019-05-20T04:28:42.624Z,83.06
2019-05-20T04:31:11.736Z,82.75
2019-05-20T04:33:40.613Z,82.48
2019-05-20T04:36:09.532Z,82.53
2019-05-20T04:38:38.633Z,81.96
2019-05-20T04:41:07.534Z,82.16
2019-05-20T04:43:36.388Z,81.83
2019-05-20T04:46:05.136Z,81.73
2019-05-20T04:48:33.861Z,81.77
2019-05-20T04:51:02.714Z,81.91
2019-05-20T04:53:31.637Z,81.90
2019-05-20T04:56:00.561Z,81.70
2019-05-20T04:58:29.301Z,82.08
2019-05-20T05:00:59.465Z,82.06
2019-05-20T05:03:28.670Z,81.40
2019-05-20T05:05:57.493Z,81.25
2019-05-20T05:08:26.367Z,80.74
2019-05-20T05:10:55.844Z,80.88
2019-05-20T05:13:25.109Z,81.32
2019-05-20T05:15:54.378Z,81.37
2019-05-20T05:18:23.615Z,80.84
2019-05-20T05:20:52.464Z,80.46
2019-05-20T05:23:23.370Z,80.32
2019-05-20T05:25:52.281Z,80.44
2019-05-20T05:28:21.247Z,81.06
2019-05-20T05:30:50.365Z,80.50
2019-05-20T05:33:19.248Z,80.15
2019-05-20T05:35:53.402Z,80.56
2019-05-20T05:38:18.996Z,80.74
2019-05-20T05:40:48.224Z,81.19
2019-05-20T05:43:17.384Z,80.74
2019-05-20T05:45:46.295Z,79.94
2019-05-20T05:48:15.183Z,79.82
2019-05-20T05:50:44.087Z,79.81
2019-05-20T05:53:13.149Z,80.40
2019-05-20T05:55:42.410Z,80.54
2019-05-20T05:58:11.765Z,80.58
2019-05-20T06:00:40.994Z,81.07
2019-05-20T06:03:22.169Z,80.42
2019-05-20T06:05:51.164Z,80.09
2019-05-20T06:08:19.975Z,80.31
2019-05-20T06:10:49.075Z,80.86
2019-05-20T06:13:18.045Z,81.19
2019-05-20T06:15:58.073Z,80.81
2019-05-20T06:18:26.906Z,81.07
2019-05-20T06:20:55.844Z,81.02
2019-05-20T06:23:24.730Z,81.29
2019-05-20T06:25:54.754Z,80.85
2019-05-20T06:28:23.642Z,79.97
2019-05-20T06:30:52.602Z,79.71
2019-05-20T06:33:21.743Z,79.71
2019-05-20T06:35:50.862Z,79.06
2019-05-20T06:38:43.601Z,77.90
2019-05-20T06:41:12.676Z,77.63
2019-05-20T06:43:41.607Z,75.75
2019-05-20T06:46:10.525Z,74.17
2019-05-20T06:48:39.434Z,74.04
2019-05-20T06:51:08.386Z,73.61
2019-05-20T06:53:37.539Z,72.81
2019-05-20T06:56:09.515Z,71.05
2019-05-20T06:58:38.342Z,71.25
2019-05-20T07:01:07.171Z,69.22
2019-05-20T07:03:36.037Z,68.99
2019-05-20T07:06:05.044Z,69.57
2019-05-20T07:08:33.772Z,69.10
2019-05-20T07:11:02.625Z,67.50
2019-05-20T07:13:42.078Z,68.80
2019-05-20T07:16:11.118Z,69.06
2019-05-20T07:18:40.274Z,69.67
2019-05-20T07:21:09.070Z,70.51
2019-05-20T07:23:37.967Z,69.74
2019-05-20T07:26:06.863Z,70.46
2019-05-20T07:28:35.686Z,70.04
2019-05-20T07:31:05.027Z,66.68
2019-05-20T07:33:34.189Z,65.76
2019-05-20T07:36:03.034Z,67.54
2019-05-20T07:38:31.880Z,66.37
2019-05-20T07:41:00.851Z,68.01
2019-05-20T07:43:29.946Z,68.76
2019-05-20T07:45:59.238Z,67.84
2019-05-20T07:48:28.681Z,66.23
2019-05-20T07:50:57.856Z,67.86
2019-05-20T07:53:26.853Z,66.22
2019-05-20T07:56:03.279Z,65.72
2019-05-20T07:58:34.003Z,67.21
2019-05-20T08:01:03.169Z,65.74
2019-05-20T08:03:32.141Z,64.43
2019-05-20T08:06:01.269Z,60.05
2019-05-20T08:08:30.238Z,62.14
2019-05-20T08:10:59.621Z,62.11
2019-05-20T08:13:28.557Z,62.46
2019-05-20T08:15:57.420Z,62.12
2019-05-20T08:18:26.276Z,63.00
2019-05-20T08:20:55.001Z,62.55
2019-05-20T08:23:25.189Z,61.06
2019-05-20T08:25:54.228Z,63.04
2019-05-20T08:28:23.174Z,64.35
2019-05-20T08:30:52.089Z,64.04
2019-05-20T08:33:21.202Z,64.20
2019-05-20T08:35:50.435Z,63.08
2019-05-20T08:38:19.437Z,63.67
2019-05-20T08:40:49.010Z,64.24
2019-05-20T08:43:17.901Z,61.94
2019-05-20T08:45:46.847Z,61.77
2019-05-20T08:48:15.642Z,61.02
2019-05-20T08:50:44.509Z,63.69
2019-05-20T08:53:13.361Z,61.63
2019-05-20T08:55:42.192Z,62.65
2019-05-20T08:58:11.263Z,62.63
2019-05-20T09:00:40.446Z,61.83
2019-05-20T09:03:09.541Z,60.73
2019-05-20T09:05:39.046Z,61.10
2019-05-20T09:08:08.414Z,60.21
2019-05-20T09:10:39.444Z,59.44
2019-05-20T09:13:08.171Z,60.35
2019-05-20T09:15:37.052Z,59.96
2019-05-20T09:18:12.957Z,61.22
2019-05-20T09:20:41.943Z,60.87
2019-05-20T09:23:11.030Z,62.86
2019-05-20T09:25:39.979Z,61.82
2019-05-20T09:28:09.283Z,59.89
2019-05-20T09:30:38.327Z,60.38
2019-05-20T09:33:07.357Z,60.22
2019-05-20T09:35:36.281Z,61.16
2019-05-20T09:38:18.429Z,63.03
2019-05-20T09:40:41.192Z,59.93
2019-05-20T09:43:10.226Z,60.26
2019-05-20T09:45:39.293Z,61.27
2019-05-20T09:48:08.427Z,59.96
2019-05-20T09:50:37.266Z,60.32
2019-05-20T09:53:07.556Z,60.32
2019-05-20T09:55:36.975Z,60.58
2019-05-20T09:58:05.928Z,60.90
2019-05-20T10:00:34.710Z,60.45
2019-05-20T10:03:03.752Z,62.14
2019-05-20T10:05:32.615Z,62.77
2019-05-20T10:08:01.584Z,62.62
2019-05-20T10:10:30.449Z,61.32
2019-05-20T10:12:59.685Z,63.55
2019-05-20T10:15:28.940Z,60.80
2019-05-20T10:17:58.428Z,64.95
2019-05-20T10:20:27.293Z,64.39
2019-05-20T10:22:56.038Z,63.97
2019-05-20T10:25:25.091Z,64.01
2019-05-20T10:27:57.358Z,64.09
2019-05-20T10:30:24.448Z,64.49
2019-05-20T10:32:53.312Z,65.32
2019-05-20T10:35:22.243Z,66.83
2019-05-20T10:37:51.334Z,67.58
2019-05-20T10:40:20.370Z,64.62
2019-05-20T10:42:50.659Z,65.62
2019-05-20T10:45:19.582Z,66.79
2019-05-20T10:47:48.328Z,68.56
2019-05-20T10:50:17.607Z,69.40
2019-05-20T10:52:46.424Z,69.43
2019-05-20T10:55:16.966Z,69.67
2019-05-20T10:57:46.017Z,70.43
2019-05-20T11:00:16.591Z,69.80
2019-05-20T11:02:45.430Z,71.08
2019-05-20T11:05:17.300Z,71.60
2019-05-20T11:07:46.500Z,71.58
2019-05-20T11:10:15.608Z,73.21
2019-05-20T11:12:44.928Z,73.58
2019-05-20T11:15:13.803Z,74.51
2019-05-20T11:17:42.693Z,75.49
2019-05-20T11:20:11.712Z,73.93
2019-05-20T11:22:40.591Z,75.21
2019-05-20T11:25:09.626Z,74.06
2019-05-20T11:33:00.037Z,75.63
2019-05-20T11:35:29.916Z,78.80
2019-05-20T11:37:59.011Z,76.92
2019-05-20T11:40:28.330Z,78.66
2019-05-20T11:42:57.339Z,78.01
2019-05-20T11:45:26.426Z,78.36
2019-05-20T11:47:55.378Z,78.98
2019-05-20T11:50:24.293Z,78.42
2019-05-20T11:52:53.346Z,78.83
2019-05-20T11:55:22.451Z,79.25
2019-05-20T11:57:51.322Z,79.71
2019-05-20T12:00:20.634Z,80.32
2019-05-20T12:02:49.580Z,81.08
2019-05-20T12:05:18.426Z,81.60
2019-05-20T12:07:47.168Z,82.44
2019-05-20T12:10:16.134Z,83.77
2019-05-20T12:12:46.173Z,83.20
2019-05-20T12:15:15.428Z,80.72
2019-05-20T12:17:44.213Z,81.18
2019-05-20T12:20:13.152Z,81.57
2019-05-20T12:22:42.225Z,82.20
2019-05-20T12:25:11.124Z,80.70
2019-05-20T12:27:42.519Z,80.91
2019-05-20T12:30:11.608Z,82.30
2019-05-20T12:32:40.742Z,82.32
2019-05-20T12:35:09.869Z,83.59
2019-05-20T12:37:39.656Z,83.34
2019-05-20T12:40:09.078Z,84.37
2019-05-20T12:42:38.075Z,84.49
2019-05-20T12:45:07.513Z,84.54
2019-05-20T12:47:36.389Z,84.02
2019-05-20T12:50:05.793Z,83.91
2019-05-20T12:55:17.229Z,84.45
2019-05-20T13:00:22.536Z,83.84
2019-05-20T13:02:51.751Z,84.80
2019-05-20T13:07:56.911Z,85.98
2019-05-20T13:10:29.794Z,85.69
2019-05-20T13:12:56.978Z,85.76
2019-05-20T13:15:25.952Z,86.68
2019-05-20T14:56:32.655Z,100.00
2019-05-20T14:59:03.898Z,100.00
2019-05-20T15:01:33.092Z,100.00
2019-05-20T15:04:02.221Z,100.00
2019-05-20T15:06:32.651Z,100.00
2019-05-20T15:09:04.431Z,100.00
2019-05-20T15:11:38.266Z,100.00
2019-05-20T15:14:04.483Z,100.00
2019-05-20T15:16:33.932Z,100.00
2019-05-20T15:19:02.933Z,100.00
2019-05-20T15:21:31.960Z,100.00
2019-05-20T15:24:00.956Z,100.00
2019-05-20T15:26:30.130Z,100.00
2019-05-20T15:28:59.271Z,100.00
2019-05-20T15:31:28.524Z,100.00
2019-05-20T15:33:57.935Z,100.00
2019-05-20T15:36:26.923Z,100.00
2019-05-20T15:38:59.266Z,100.00
2019-05-20T15:41:30.783Z,100.00
2019-05-20T15:43:59.757Z,100.00
2019-05-20T15:46:28.666Z,100.00
2019-05-20T15:48:58.194Z,100.00
2019-05-20T15:51:27.522Z,100.00
2019-05-20T15:53:56.503Z,100.00
2019-05-20T15:56:25.599Z,100.00
2019-05-20T15:59:11.236Z,100.00
2019-05-20T16:01:41.201Z,100.00
2019-05-20T16:04:10.166Z,100.00
2019-05-20T16:06:38.893Z,100.00
2019-05-20T16:09:08.009Z,100.00
2019-05-20T16:11:36.971Z,100.00
2019-05-20T16:14:05.741Z,100.00
2019-05-20T16:16:34.643Z,100.00
2019-05-20T16:19:03.470Z,100.00
2019-05-20T16:21:32.298Z,100.00
2019-05-20T16:24:01.954Z,100.00
2019-05-20T16:26:30.940Z,100.00
2019-05-20T16:29:10.807Z,100.00
2019-05-20T16:31:39.621Z,100.00
2019-05-20T16:34:08.565Z,100.00
2019-05-20T16:36:43.323Z,100.00
2019-05-20T16:39:12.137Z,100.00
2019-05-20T16:41:43.119Z,100.00
2019-05-20T16:44:12.399Z,100.00
2019-05-20T16:46:42.322Z,100.00
2019-05-20T16:49:11.294Z,100.00
2019-05-20T16:51:40.335Z,100.00
2019-05-20T16:54:09.762Z,100.00
2019-05-20T16:56:38.678Z,100.00
2019-05-20T16:59:08.771Z,100.00
2019-05-20T17:04:14.346Z,100.00
2019-05-20T17:06:48.352Z,100.00
2019-05-20T17:09:18.427Z,100.00
2019-05-20T17:11:48.089Z,100.00
2019-05-20T17:14:22.359Z,100.00
2019-05-20T17:35:39.921Z,100.00
2019-05-20T17:38:09.841Z,100.00
2019-05-20T17:40:38.848Z,100.00
2019-05-20T17:43:09.077Z,100.00
2019-05-20T17:45:38.415Z,100.00
2019-05-20T17:48:07.858Z,100.00
2019-05-20T17:50:37.893Z,100.00
2019-05-20T17:53:10.335Z,100.00
2019-05-20T17:55:39.354Z,100.00
2019-05-20T17:58:08.570Z,100.00
2019-05-20T18:00:39.759Z,100.00
2019-05-20T18:03:09.079Z,100.00
2019-05-20T18:05:38.092Z,100.00
2019-05-20T18:08:07.555Z,100.00
2019-05-20T18:10:37.861Z,100.00
2019-05-20T18:13:07.188Z,100.00
2019-05-20T18:15:38.202Z,100.00
2019-05-20T18:18:09.714Z,100.00
2019-05-20T18:20:38.962Z,100.00
2019-05-20T18:23:08.255Z,100.00
2019-05-20T18:25:37.165Z,100.00
2019-05-20T18:28:06.166Z,100.00
2019-05-20T18:30:35.280Z,100.00
2019-05-20T18:33:04.601Z,100.00
2019-05-20T18:35:42.740Z,100.00
2019-05-20T18:38:12.863Z,100.00
2019-05-20T18:40:42.160Z,100.00
2019-05-20T18:43:11.078Z,100.00
2019-05-20T18:45:41.714Z,100.00
2019-05-20T18:48:10.537Z,100.00
2019-05-20T18:50:39.863Z,100.00
2019-05-20T18:53:10.873Z,100.00
2019-05-20T18:55:39.889Z,100.00
2019-05-20T18:58:08.787Z,100.00
2019-05-20T19:00:37.735Z,100.00
2019-05-20T19:03:07.075Z,100.00
2019-05-20T19:05:35.881Z,100.00
2019-05-20T19:08:07.092Z,100.00
2019-05-20T19:10:36.089Z,100.00
2019-05-20T19:13:08.106Z,100.00
2019-05-20T19:15:37.277Z,100.00
2019-05-20T19:18:06.374Z,100.00
2019-05-20T19:20:35.222Z,100.00
2019-05-20T19:23:05.649Z,100.00
2019-05-20T19:25:37.913Z,100.00
2019-05-20T19:28:05.325Z,100.00
2019-05-20T19:30:37.543Z,100.00
2019-05-20T19:33:11.090Z,100.00
2019-05-20T19:35:43.085Z,100.00
2019-05-20T19:38:14.490Z,100.00
2019-05-20T19:40:48.178Z,100.00
2019-05-20T19:43:20.686Z,100.00
2019-05-20T19:51:50.401Z,100.00
2019-05-20T19:54:24.165Z,100.00
2019-05-20T20:10:10.448Z,100.00
